createdAt,value
2022-10-18T00:02:23.720Z,36.38
2022-10-18T00:04:50.630Z,34.10
2022-10-18T00:07:17.413Z,35.13
2022-10-18T00:09:44.323Z,35.00
2022-10-18T00:12:12.182Z,33.22
2022-10-18T00:14:39.073Z,32.90
2022-10-18T00:17:05.962Z,31.27
2022-10-18T00:19:32.773Z,25.77
2022-10-18T00:21:59.564Z,25.15
2022-10-18T00:24:26.462Z,24.00
2022-10-18T00:26:53.321Z,21.33
2022-10-18T00:29:20.272Z,21.42
2022-10-18T00:31:47.122Z,19.40
2022-10-18T00:34:15.993Z,17.30
2022-10-18T00:36:44.044Z,17.55
2022-10-18T00:39:19.883Z,18.65
2022-10-18T00:41:46.783Z,18.77
2022-10-18T00:44:13.648Z,18.58
2022-10-18T00:46:43.453Z,18.77
2022-10-18T00:49:25.354Z,19.52
2022-10-18T00:51:58.097Z,19.42
2022-10-18T00:54:25.718Z,19.92
2022-10-18T00:56:52.868Z,19.58
2022-10-18T00:59:20.342Z,20.30
2022-10-18T01:01:47.311Z,21.05
2022-10-18T01:04:16.130Z,22.13
2022-10-18T01:06:58.254Z,22.95
2022-10-18T01:09:41.540Z,19.98
2022-10-18T01:12:25.091Z,20.77
2022-10-18T01:14:59.703Z,20.00
2022-10-18T01:17:26.542Z,19.13
2022-10-18T01:20:16.632Z,16.65
2022-10-18T01:23:04.222Z,18.10
2022-10-18T01:26:20.613Z,17.48
2022-10-18T01:28:56.267Z,16.92
2022-10-18T01:31:40.026Z,17.03
2022-10-18T01:34:10.493Z,16.58
2022-10-18T01:36:48.491Z,16.75
2022-10-18T01:39:37.983Z,18.58
2022-10-18T01:42:10.135Z,16.60
2022-10-18T01:44:39.295Z,15.88
2022-10-18T01:47:10.609Z,14.55
2022-10-18T01:49:37.621Z,15.02
2022-10-18T01:52:05.008Z,13.77
2022-10-18T01:54:40.225Z,13.27
2022-10-18T01:57:19.823Z,13.13
2022-10-18T02:00:00.110Z,13.48
2022-10-18T02:02:41.356Z,12.15
2022-10-18T02:05:33.222Z,12.43
2022-10-18T02:08:22.068Z,12.63
2022-10-18T02:10:55.310Z,11.60
2022-10-18T02:13:24.032Z,11.73
2022-10-18T02:15:56.601Z,10.75
2022-10-18T02:18:28.293Z,11.88
2022-10-18T02:20:56.052Z,11.27
2022-10-18T02:23:26.919Z,11.10
2022-10-18T02:25:54.272Z,11.40
2022-10-18T02:28:22.020Z,11.20
2022-10-18T02:31:27.700Z,11.43
2022-10-18T02:33:58.971Z,10.95
2022-10-18T02:36:33.767Z,11.18
2022-10-18T02:39:25.361Z,10.63
2022-10-18T02:41:55.623Z,11.18
2022-10-18T02:44:22.467Z,10.23
2022-10-18T02:46:49.349Z,10.57
2022-10-18T02:49:17.585Z,10.90
2022-10-18T02:51:44.391Z,12.10
2022-10-18T02:54:11.301Z,12.00
2022-10-18T02:56:38.225Z,11.65
2022-10-18T02:59:07.472Z,11.27
2022-10-18T03:01:37.562Z,11.07
2022-10-18T03:04:07.788Z,11.52
2022-10-18T03:06:34.732Z,11.32
2022-10-18T03:09:06.572Z,11.00
2022-10-18T03:11:33.483Z,10.93
2022-10-18T03:14:03.090Z,10.98
2022-10-18T03:16:30.039Z,11.23
2022-10-18T03:18:57.023Z,11.02
2022-10-18T03:21:23.882Z,10.98
2022-10-18T03:23:50.714Z,11.63
2022-10-18T03:26:17.738Z,11.38
2022-10-18T03:28:44.684Z,11.10
2022-10-18T03:31:11.636Z,10.70
2022-10-18T03:33:38.551Z,11.00
2022-10-18T03:36:05.552Z,10.98
2022-10-18T03:38:32.433Z,10.75
2022-10-18T03:40:59.362Z,11.30
2022-10-18T03:43:26.263Z,11.77
2022-10-18T03:45:53.151Z,12.05
2022-10-18T03:48:20.145Z,10.95
2022-10-18T03:50:46.912Z,12.38
2022-10-18T03:53:13.982Z,12.90
2022-10-18T03:55:41.162Z,12.00
2022-10-18T03:58:08.007Z,11.05
2022-10-18T04:00:35.142Z,11.52
2022-10-18T04:03:02.172Z,11.73
2022-10-18T04:05:31.045Z,11.95
2022-10-18T04:07:58.632Z,12.40
2022-10-18T04:10:26.035Z,12.73
2022-10-18T04:12:53.051Z,12.52
2022-10-18T04:15:20.657Z,12.30
2022-10-18T04:17:47.712Z,12.10
2022-10-18T04:20:14.764Z,11.75
2022-10-18T04:22:41.620Z,11.80
2022-10-18T04:25:08.982Z,12.05
2022-10-18T04:27:36.582Z,11.73
2022-10-18T04:30:04.062Z,13.05
2022-10-18T04:32:31.068Z,13.05
2022-10-18T04:34:57.895Z,12.98
2022-10-18T04:37:24.744Z,13.25
2022-10-18T04:39:53.712Z,12.90
2022-10-18T04:42:22.122Z,13.80
2022-10-18T04:44:48.992Z,13.43
2022-10-18T04:47:16.874Z,14.48
2022-10-18T04:49:43.735Z,12.30
2022-10-18T04:52:11.932Z,14.10
2022-10-18T04:54:38.841Z,13.10
2022-10-18T04:57:05.705Z,13.02
2022-10-18T04:59:32.525Z,13.00
2022-10-18T05:01:59.457Z,13.00
2022-10-18T05:04:26.354Z,12.27
2022-10-18T05:06:53.163Z,12.15
2022-10-18T05:09:22.499Z,13.77
2022-10-18T05:11:49.291Z,12.18
2022-10-18T05:14:16.370Z,13.65
2022-10-18T05:16:43.221Z,14.10
2022-10-18T05:19:10.062Z,14.43
2022-10-18T05:21:36.863Z,13.15
2022-10-18T05:24:04.086Z,11.65
2022-10-18T05:26:30.913Z,12.85
2022-10-18T05:28:58.013Z,11.30
2022-10-18T05:31:24.915Z,11.77
2022-10-18T05:33:51.724Z,12.52
2022-10-18T05:36:18.885Z,12.02
2022-10-18T05:38:48.474Z,11.80
2022-10-18T05:41:15.389Z,11.88
2022-10-18T05:43:42.281Z,11.82
2022-10-18T05:46:14.692Z,11.32
2022-10-18T05:48:44.928Z,11.80
2022-10-18T05:51:12.176Z,10.95
2022-10-18T05:53:39.069Z,11.32
2022-10-18T05:56:07.285Z,11.23
2022-10-18T05:58:35.741Z,10.65
2022-10-18T06:01:03.417Z,10.18
2022-10-18T06:03:33.553Z,10.40
2022-10-18T06:06:05.821Z,10.55
2022-10-18T06:08:33.324Z,10.00
2022-10-18T06:11:00.337Z,10.48
2022-10-18T06:13:29.104Z,9.43
2022-10-18T06:15:58.025Z,9.27
2022-10-18T06:18:24.925Z,8.02
2022-10-18T06:20:59.192Z,9.50
2022-10-18T06:23:27.694Z,9.65
2022-10-18T06:25:58.162Z,10.35
2022-10-18T06:28:25.178Z,9.98
2022-10-18T06:30:52.019Z,9.45
2022-10-18T06:33:18.879Z,10.45
2022-10-18T06:35:58.375Z,10.80
2022-10-18T06:38:25.771Z,10.75
2022-10-18T06:40:53.891Z,11.20
2022-10-18T06:43:21.661Z,10.13
2022-10-18T06:46:08.271Z,10.18
2022-10-18T06:48:36.508Z,9.35
2022-10-18T06:51:05.568Z,8.07
2022-10-18T06:53:40.730Z,9.90
2022-10-18T06:56:13.032Z,8.60
2022-10-18T06:58:40.993Z,8.40
2022-10-18T07:01:10.027Z,8.00
2022-10-18T07:03:37.071Z,8.73
2022-10-18T07:06:09.007Z,7.60
2022-10-18T07:08:36.214Z,7.80
2022-10-18T07:11:03.542Z,9.00
2022-10-18T07:13:33.103Z,11.40
2022-10-18T07:16:01.369Z,8.95
2022-10-18T07:18:28.398Z,9.13
2022-10-18T07:20:55.263Z,6.97
2022-10-18T07:23:23.985Z,6.78
2022-10-18T07:25:51.334Z,7.80
2022-10-18T07:28:18.495Z,7.40
2022-10-18T07:30:45.311Z,7.57
2022-10-18T07:33:12.160Z,7.22
2022-10-18T07:35:38.953Z,8.00
2022-10-18T07:38:05.743Z,8.13
2022-10-18T07:40:32.723Z,8.13
2022-10-18T07:43:04.089Z,6.93
2022-10-18T07:45:32.272Z,7.53
2022-10-18T07:47:59.267Z,7.60
2022-10-18T07:50:26.175Z,7.15
2022-10-18T07:52:52.941Z,8.57
2022-10-18T07:55:19.922Z,7.40
2022-10-18T07:57:46.763Z,6.82
2022-10-18T08:00:14.072Z,7.03
2022-10-18T08:02:40.999Z,7.45
2022-10-18T08:05:08.098Z,7.70
2022-10-18T08:07:35.086Z,6.43
2022-10-18T08:10:02.071Z,7.90
2022-10-18T08:12:29.005Z,8.43
2022-10-18T08:14:55.759Z,7.35
2022-10-18T08:17:22.593Z,7.75
2022-10-18T08:19:58.567Z,6.78
2022-10-18T08:22:36.419Z,6.60
2022-10-18T08:25:04.581Z,5.55
2022-10-18T08:27:31.724Z,5.47
2022-10-18T08:30:00.091Z,5.18
2022-10-18T08:32:28.580Z,4.28
2022-10-18T08:34:55.482Z,4.57
2022-10-18T08:37:22.557Z,3.97
2022-10-18T08:39:49.330Z,4.20
2022-10-18T08:42:41.195Z,3.28
2022-10-18T08:45:18.024Z,3.58
2022-10-18T08:47:58.280Z,3.83
2022-10-18T08:50:35.488Z,3.25
2022-10-18T08:53:20.633Z,4.28
2022-10-18T08:56:05.274Z,3.60
2022-10-18T08:58:33.800Z,3.92
2022-10-18T09:01:21.817Z,3.78
2022-10-18T09:04:08.882Z,3.58
2022-10-18T09:09:25.134Z,4.00
2022-10-18T09:12:03.973Z,3.77
2022-10-18T09:14:39.905Z,3.97
2022-10-18T09:17:26.012Z,4.22
2022-10-18T09:20:11.024Z,3.07
2022-10-18T09:22:46.872Z,3.55
2022-10-18T09:25:21.055Z,3.60
2022-10-18T09:27:57.135Z,3.75
2022-10-18T09:30:37.440Z,3.75
2022-10-18T09:33:13.258Z,5.15
2022-10-18T09:35:55.027Z,3.97
2022-10-18T09:38:26.710Z,3.85
2022-10-18T09:41:02.577Z,3.35
2022-10-18T09:43:48.335Z,3.65
2022-10-18T09:46:18.354Z,4.05
2022-10-18T09:49:06.136Z,3.65
2022-10-18T09:51:40.096Z,3.10
2022-10-18T09:54:28.435Z,3.88
2022-10-18T09:57:02.756Z,3.13
2022-10-18T09:59:41.494Z,3.17
2022-10-18T10:02:22.672Z,2.90
2022-10-18T10:04:50.431Z,3.13
2022-10-18T10:07:19.987Z,3.70
2022-10-18T10:09:55.767Z,3.10
2022-10-18T10:12:27.953Z,3.60
2022-10-18T10:14:54.957Z,2.60
2022-10-18T10:17:29.870Z,3.20
2022-10-18T10:20:20.343Z,3.88
2022-10-18T10:22:48.216Z,3.38
2022-10-18T10:25:32.957Z,3.20
2022-10-18T10:28:05.411Z,3.63
2022-10-18T10:30:35.703Z,3.22
2022-10-18T10:33:03.713Z,3.55
2022-10-18T10:38:25.270Z,3.95
2022-10-18T10:40:52.883Z,3.95
2022-10-18T10:43:38.168Z,3.70
2022-10-18T10:46:08.221Z,3.38
2022-10-18T10:48:46.090Z,3.55
2022-10-18T10:51:13.510Z,3.83
2022-10-18T10:53:42.930Z,3.28
2022-10-18T10:56:37.590Z,3.63
2022-10-18T10:59:14.609Z,4.13
2022-10-18T11:01:42.104Z,4.25
2022-10-18T11:04:30.067Z,3.42
2022-10-18T11:07:09.500Z,3.58
2022-10-18T11:09:46.197Z,3.63
2022-10-18T11:12:38.141Z,3.80
2022-10-18T11:15:12.118Z,4.15
2022-10-18T11:18:00.766Z,3.35
2022-10-18T11:20:49.436Z,3.60
2022-10-18T11:23:18.225Z,2.90
2022-10-18T11:26:03.223Z,2.35
2022-10-18T11:29:03.097Z,3.72
2022-10-18T11:31:40.552Z,2.88
2022-10-18T11:34:32.751Z,3.58
2022-10-18T11:37:37.529Z,3.28
2022-10-18T11:40:43.880Z,2.95
2022-10-18T11:43:19.623Z,2.67
2022-10-18T11:46:05.430Z,2.80
2022-10-18T11:48:42.965Z,2.20
2022-10-18T11:51:34.011Z,2.65
2022-10-18T11:54:17.892Z,2.25
2022-10-18T11:57:16.475Z,2.50
2022-10-18T11:59:58.951Z,3.50
2022-10-18T12:02:37.810Z,3.10
2022-10-18T12:05:24.367Z,7.03
2022-10-18T12:10:52.770Z,3.63
2022-10-18T12:13:34.076Z,4.40
2022-10-18T12:16:04.314Z,3.83
2022-10-18T12:18:33.117Z,4.40
2022-10-18T12:21:01.974Z,5.90
2022-10-18T12:23:54.920Z,6.53
2022-10-18T12:26:23.043Z,5.40
2022-10-18T12:29:08.538Z,5.75
2022-10-18T12:31:42.300Z,4.97
2022-10-18T12:34:42.029Z,6.70
2022-10-18T12:37:42.139Z,6.63
2022-10-18T12:40:21.879Z,5.90
2022-10-18T12:42:52.290Z,7.22
2022-10-18T12:45:35.059Z,5.82
2022-10-18T12:48:38.884Z,5.70
2022-10-18T12:51:16.415Z,5.65
2022-10-18T12:53:46.548Z,5.72
2022-10-18T12:56:28.631Z,6.15
2022-10-18T12:59:16.774Z,7.82
2022-10-18T13:01:55.545Z,5.72
2022-10-18T13:04:28.614Z,5.30
2022-10-18T13:06:58.535Z,6.00
2022-10-18T13:10:08.379Z,6.43
2022-10-18T13:12:44.126Z,4.53
2022-10-18T13:15:26.278Z,5.43
2022-10-18T13:18:05.912Z,5.03
2022-10-18T13:20:53.561Z,5.40
2022-10-18T13:23:41.664Z,4.57
2022-10-18T13:26:32.058Z,3.80
2022-10-18T13:29:14.863Z,3.85
2022-10-18T13:34:49.846Z,4.50
2022-10-18T13:37:16.635Z,4.32
2022-10-18T13:39:43.707Z,3.55
2022-10-18T13:42:16.549Z,3.50
2022-10-18T13:44:44.892Z,3.05
2022-10-18T13:47:32.129Z,3.22
2022-10-18T13:50:21.675Z,3.40
2022-10-18T13:53:08.269Z,3.65
2022-10-18T13:56:26.256Z,3.17
2022-10-18T13:59:28.987Z,4.30
2022-10-18T14:02:51.832Z,4.20
2022-10-18T14:05:47.410Z,2.50
2022-10-18T14:08:20.959Z,2.40
2022-10-18T14:11:21.516Z,3.90
2022-10-18T14:14:08.203Z,2.80
2022-10-18T14:16:46.374Z,2.97
2022-10-18T14:19:37.023Z,3.83
2022-10-18T14:22:09.630Z,3.90
2022-10-18T14:24:41.068Z,2.72
2022-10-18T14:27:20.052Z,2.85
2022-10-18T14:29:48.541Z,3.40
2022-10-18T14:32:30.252Z,3.17
2022-10-18T14:35:27.338Z,3.97
2022-10-18T14:37:44.347Z,3.25
2022-10-18T14:40:39.145Z,3.28
2022-10-18T14:43:12.751Z,3.85
2022-10-18T14:45:41.022Z,4.50
2022-10-18T14:48:34.198Z,5.18
2022-10-18T14:51:03.304Z,4.82
2022-10-18T14:53:37.392Z,4.55
2022-10-18T14:56:04.910Z,4.78
2022-10-18T14:58:32.937Z,5.00
2022-10-18T15:01:00.032Z,5.72
2022-10-18T15:03:28.525Z,6.28
2022-10-18T15:06:01.938Z,5.20
2022-10-18T15:08:40.696Z,6.00
2022-10-18T15:11:11.857Z,6.25
2022-10-18T15:13:59.956Z,5.88
2022-10-18T15:16:30.981Z,6.55
2022-10-18T15:19:15.896Z,7.88
2022-10-18T15:25:06.085Z,8.30
2022-10-18T15:27:37.032Z,9.73
2022-10-18T15:30:11.151Z,8.93
2022-10-18T15:32:40.499Z,8.77
2022-10-18T15:35:14.658Z,12.48
2022-10-18T15:37:47.620Z,14.88
2022-10-18T15:40:23.353Z,19.50
2022-10-18T15:42:52.705Z,20.67
2022-10-18T15:45:25.412Z,14.95
2022-10-18T15:48:09.527Z,16.38
2022-10-18T15:50:45.021Z,12.43
2022-10-18T15:53:21.409Z,9.98
2022-10-18T15:56:31.231Z,11.73
2022-10-18T15:59:00.752Z,10.15
2022-10-18T16:01:38.843Z,10.50
2022-10-18T16:04:12.672Z,11.15
2022-10-18T16:06:39.559Z,10.55
2022-10-18T16:09:06.730Z,9.38
2022-10-18T16:11:33.592Z,20.20
2022-10-18T16:14:00.830Z,19.48
2022-10-18T16:16:47.232Z,21.88
2022-10-18T16:19:15.831Z,43.40
2022-10-18T16:21:42.962Z,23.80
2022-10-18T16:24:09.933Z,19.90
2022-10-18T16:26:37.822Z,16.33
2022-10-18T16:29:05.772Z,18.20
2022-10-18T16:31:34.628Z,16.48
2022-10-18T16:34:02.660Z,19.45
2022-10-18T16:36:33.822Z,19.63
2022-10-18T16:39:03.832Z,18.75
2022-10-18T16:41:30.670Z,22.73
2022-10-18T16:43:57.512Z,21.02
2022-10-18T16:46:30.051Z,20.88
2022-10-18T16:48:57.984Z,22.73
2022-10-18T16:51:25.167Z,24.65
2022-10-18T16:53:53.832Z,27.42
2022-10-18T16:56:24.487Z,29.58
2022-10-18T16:58:52.099Z,39.13
2022-10-18T17:01:21.289Z,46.30
2022-10-18T17:03:48.801Z,42.63
2022-10-18T17:06:24.514Z,43.10
2022-10-18T17:08:52.163Z,40.47
2022-10-18T17:11:20.133Z,36.70
2022-10-18T17:13:47.294Z,34.15
2022-10-18T17:16:31.369Z,34.47
2022-10-18T17:19:00.564Z,31.58
2022-10-18T17:21:28.850Z,29.70
2022-10-18T17:23:57.594Z,27.25
2022-10-18T17:26:29.257Z,27.42
2022-10-18T17:28:59.605Z,27.02
2022-10-18T17:31:26.972Z,27.65
2022-10-18T17:33:55.493Z,28.85
2022-10-18T17:36:22.778Z,25.55
2022-10-18T17:38:53.969Z,25.27
2022-10-18T17:41:21.353Z,22.58
2022-10-18T17:43:48.697Z,22.38
2022-10-18T17:46:16.085Z,24.90
2022-10-18T17:48:43.219Z,25.92
2022-10-18T17:51:12.003Z,26.52
2022-10-18T17:53:39.309Z,26.45
2022-10-18T17:56:07.856Z,26.73
2022-10-18T17:58:35.172Z,27.70
2022-10-18T18:01:28.472Z,28.30
2022-10-18T18:04:03.472Z,30.17
2022-10-18T18:06:40.187Z,32.15
2022-10-18T18:09:10.582Z,33.85
2022-10-18T18:11:38.878Z,36.50
2022-10-18T18:14:10.013Z,36.97
2022-10-18T18:16:39.289Z,36.30
2022-10-18T18:19:09.662Z,36.20
2022-10-18T18:21:37.929Z,35.50
2022-10-18T18:24:05.191Z,39.00
2022-10-18T18:26:33.564Z,43.70
2022-10-18T18:31:30.772Z,46.15
2022-10-18T18:34:01.264Z,45.05
2022-10-18T18:36:32.680Z,46.80
2022-10-18T18:38:59.627Z,45.75
2022-10-18T18:41:28.619Z,47.33
2022-10-18T18:43:57.991Z,49.88
2022-10-18T18:46:27.073Z,54.90
2022-10-18T18:48:54.292Z,57.53
2022-10-18T18:51:22.136Z,60.15
2022-10-18T18:53:49.190Z,58.20
2022-10-18T18:58:54.378Z,62.42
2022-10-18T19:01:24.093Z,61.53
2022-10-18T19:03:53.391Z,64.00
2022-10-18T19:06:41.163Z,70.82
2022-10-18T19:09:18.551Z,67.85
2022-10-18T19:11:47.162Z,65.55
2022-10-18T19:14:15.139Z,73.28
2022-10-18T19:16:47.619Z,71.05
2022-10-18T19:19:19.680Z,71.03
2022-10-18T19:21:49.559Z,64.55
2022-10-18T19:24:16.370Z,65.63
2022-10-18T19:26:46.240Z,62.50
2022-10-18T19:29:29.881Z,66.30
2022-10-18T19:31:59.463Z,69.18
2022-10-18T19:34:28.515Z,66.05
2022-10-18T19:36:55.629Z,60.13
2022-10-18T19:39:24.702Z,54.33
2022-10-18T19:41:55.337Z,55.92
2022-10-18T19:44:23.998Z,56.38
2022-10-18T19:46:51.648Z,55.38
2022-10-18T19:49:18.603Z,66.95
2022-10-18T19:51:45.642Z,69.35
2022-10-18T19:54:14.030Z,73.57
2022-10-18T19:56:44.369Z,78.03
2022-10-18T19:59:12.778Z,77.40
2022-10-18T20:01:39.707Z,73.97
2022-10-18T20:04:08.397Z,70.80
2022-10-18T20:06:36.249Z,66.75
2022-10-18T20:09:03.525Z,66.95
2022-10-18T20:11:30.652Z,64.82
2022-10-18T20:13:57.826Z,62.38
2022-10-18T20:16:28.865Z,62.10
2022-10-18T20:19:00.945Z,51.03
2022-10-18T20:21:29.399Z,48.50
2022-10-18T20:23:56.711Z,44.28
2022-10-18T20:26:25.558Z,46.67
2022-10-18T20:28:57.242Z,44.80
2022-10-18T20:31:29.318Z,43.65
2022-10-18T20:33:59.124Z,43.95
2022-10-18T20:36:27.091Z,42.30
2022-10-18T20:38:55.072Z,42.78
2022-10-18T20:41:28.500Z,41.00
2022-10-18T20:44:10.887Z,35.28
2022-10-18T20:46:38.601Z,32.28
2022-10-18T20:49:07.110Z,28.50
2022-10-18T20:51:34.419Z,27.70
2022-10-18T20:56:34.439Z,29.45
2022-10-18T20:59:01.908Z,30.83
2022-10-18T21:01:31.868Z,28.45
2022-10-18T21:04:01.565Z,30.27
2022-10-18T21:06:34.283Z,30.45
2022-10-18T21:09:03.383Z,30.58
2022-10-18T21:11:34.343Z,33.83
2022-10-18T21:14:04.897Z,36.05
2022-10-18T21:16:33.866Z,32.88
2022-10-18T21:19:05.051Z,32.83
2022-10-18T21:21:31.934Z,36.17
2022-10-18T21:24:02.408Z,34.70
2022-10-18T21:26:32.282Z,33.05
2022-10-18T21:28:59.939Z,34.60
2022-10-18T21:31:29.640Z,33.60
2022-10-18T21:33:59.093Z,34.15
2022-10-18T21:36:27.544Z,35.33
2022-10-18T21:38:54.417Z,33.42
2022-10-18T21:41:21.930Z,34.63
2022-10-18T21:43:51.185Z,30.58
2022-10-18T21:46:19.986Z,29.85
2022-10-18T21:48:49.184Z,28.08
2022-10-18T21:51:18.506Z,28.00
2022-10-18T21:53:47.254Z,25.52
2022-10-18T21:56:19.618Z,25.58
2022-10-18T21:58:46.967Z,21.85
2022-10-18T22:01:15.364Z,20.77
2022-10-18T22:03:42.902Z,19.27
2022-10-18T22:06:14.715Z,18.50
2022-10-18T22:08:43.675Z,20.27
2022-10-18T22:11:12.625Z,22.42
2022-10-18T22:13:39.934Z,29.08
2022-10-18T22:16:07.883Z,27.20
2022-10-18T22:18:35.595Z,22.00
2022-10-18T22:21:06.278Z,24.20
2022-10-18T22:23:35.736Z,21.50
2022-10-18T22:26:14.653Z,22.25
2022-10-18T22:28:43.005Z,22.52
2022-10-18T22:33:32.502Z,22.10
2022-10-18T22:35:59.322Z,23.45
2022-10-18T22:38:26.123Z,22.80
2022-10-18T22:40:53.189Z,22.60
2022-10-18T22:43:19.983Z,22.23
2022-10-18T22:45:46.897Z,21.50
2022-10-18T22:48:13.732Z,23.10
2022-10-18T22:50:40.636Z,22.27
2022-10-18T22:53:07.742Z,21.50
2022-10-18T22:55:34.627Z,22.58
2022-10-18T22:58:07.757Z,22.10
2022-10-18T23:00:34.718Z,21.33
2022-10-18T23:03:01.730Z,23.67
2022-10-18T23:05:28.843Z,21.15
2022-10-18T23:07:55.633Z,21.20
2022-10-18T23:10:22.685Z,20.30
2022-10-18T23:12:49.534Z,19.95
2022-10-18T23:15:16.369Z,19.27
2022-10-18T23:17:43.366Z,19.50
2022-10-18T23:20:10.575Z,18.90
2022-10-18T23:22:37.514Z,19.73
2022-10-18T23:25:04.766Z,18.50
2022-10-18T23:27:31.790Z,20.75
2022-10-18T23:29:58.665Z,19.92
2022-10-18T23:32:43.935Z,20.30
2022-10-18T23:35:11.120Z,20.83
2022-10-18T23:37:38.183Z,20.05
2022-10-18T23:40:05.462Z,19.33
2022-10-18T23:42:32.359Z,18.98
2022-10-18T23:44:59.162Z,20.77
2022-10-18T23:47:26.002Z,20.45
2022-10-18T23:49:53.388Z,19.98
2022-10-18T23:52:20.220Z,20.88
2022-10-18T23:54:47.268Z,21.23
2022-10-18T23:57:14.493Z,21.80
2022-10-18T23:59:41.319Z,20.73
